createdAt,value
2023-05-19T00:00:38.277Z,48.5926
2023-05-19T00:01:39.983Z,48.5879
2023-05-19T00:02:42.450Z,48.6474
2023-05-19T00:03:43.415Z,48.5111
2023-05-19T00:04:44.880Z,48.5032
2023-05-19T00:05:46.599Z,48.5738
2023-05-19T00:06:48.140Z,48.6427
2023-05-19T00:07:49.868Z,48.6890
2023-05-19T00:08:51.981Z,48.5899
2023-05-19T00:09:53.104Z,48.6690
2023-05-19T00:10:54.860Z,48.7562
2023-05-19T00:11:56.511Z,48.8106
2023-05-19T00:12:58.083Z,48.8349
2023-05-19T00:13:59.746Z,48.7835
2023-05-19T00:15:01.338Z,48.7622
2023-05-19T00:16:03.042Z,48.7281
2023-05-19T00:17:04.637Z,48.8460
2023-05-19T00:18:06.366Z,48.9819
2023-05-19T00:19:08.022Z,49.0733
2023-05-19T00:20:09.595Z,49.1133
2023-05-19T00:21:11.189Z,49.2415
2023-05-19T00:22:12.899Z,49.0223
2023-05-19T00:23:14.499Z,48.9406
2023-05-19T00:24:16.190Z,49.0290
2023-05-19T00:25:17.795Z,49.1206
2023-05-19T00:26:19.506Z,49.3217
2023-05-19T00:27:21.106Z,49.3926
2023-05-19T00:28:22.770Z,49.3297
2023-05-19T00:29:24.388Z,49.2342
2023-05-19T00:30:26.080Z,49.2164
2023-05-19T00:31:27.747Z,49.2146
2023-05-19T00:32:29.416Z,49.4091
2023-05-19T00:33:30.992Z,49.4595
2023-05-19T00:34:32.921Z,49.5143
2023-05-19T00:35:34.280Z,49.6753
2023-05-19T00:36:35.979Z,49.7622
2023-05-19T00:37:37.510Z,49.6891
2023-05-19T00:38:39.214Z,49.6841
2023-05-19T00:39:40.915Z,49.5830
2023-05-19T00:40:42.600Z,49.5352
2023-05-19T00:41:44.160Z,49.5863
2023-05-19T00:42:45.832Z,49.6580
2023-05-19T00:43:47.403Z,49.8233
2023-05-19T00:44:49.163Z,49.9142
2023-05-19T00:45:51.411Z,49.8630
2023-05-19T00:46:52.391Z,49.8108
2023-05-19T00:47:53.993Z,49.6878
2023-05-19T00:48:55.665Z,49.6264
2023-05-19T00:49:57.302Z,49.7251
2023-05-19T00:50:58.984Z,49.8268
2023-05-19T00:52:00.557Z,49.8764
2023-05-19T00:53:02.254Z,50.0039
2023-05-19T00:54:03.850Z,49.9487
2023-05-19T00:55:05.948Z,49.9096
2023-05-19T00:56:07.186Z,49.8453
2023-05-19T00:57:08.783Z,49.8513
2023-05-19T00:58:11.417Z,49.9196
2023-05-19T00:59:12.143Z,49.9164
2023-05-19T01:00:13.745Z,50.0261
2023-05-19T01:01:15.442Z,50.0542
2023-05-19T01:02:17.027Z,49.9844
2023-05-19T01:03:18.728Z,49.9404
2023-05-19T01:04:20.308Z,49.8552
2023-05-19T01:05:22.112Z,49.9894
2023-05-19T01:06:23.646Z,49.9569
2023-05-19T01:07:25.290Z,50.1164
2023-05-19T01:08:27.012Z,50.1850
2023-05-19T01:09:28.591Z,50.2302
2023-05-19T01:10:30.421Z,50.1735
2023-05-19T01:11:32.411Z,50.1075
2023-05-19T01:12:33.468Z,50.0798
2023-05-19T01:13:35.185Z,50.1309
2023-05-19T01:14:36.732Z,50.1480
2023-05-19T01:15:38.457Z,50.2775
2023-05-19T01:16:40.128Z,50.3112
2023-05-19T01:17:41.820Z,50.2940
2023-05-19T01:18:43.365Z,50.1549
2023-05-19T01:19:45.027Z,50.1452
2023-05-19T01:20:46.668Z,50.1452
2023-05-19T01:21:48.394Z,50.3042
2023-05-19T01:22:49.969Z,50.5011
2023-05-19T01:23:51.580Z,50.4990
2023-05-19T01:24:53.942Z,50.5065
2023-05-19T01:25:54.957Z,50.3924
2023-05-19T01:26:56.965Z,50.2661
2023-05-19T01:27:58.187Z,50.3125
2023-05-19T01:28:59.765Z,50.3505
2023-05-19T01:30:01.547Z,50.5430
2023-05-19T01:31:03.161Z,50.5693
2023-05-19T01:32:04.852Z,50.6402
2023-05-19T01:33:06.470Z,50.6065
2023-05-19T01:34:08.120Z,50.6865
2023-05-19T01:35:09.689Z,50.7287
2023-05-19T01:36:11.322Z,50.6487
2023-05-19T01:37:13.948Z,50.5587
2023-05-19T01:38:14.633Z,50.4769
2023-05-19T01:39:16.282Z,50.5490
2023-05-19T01:40:17.872Z,50.6427
2023-05-19T01:41:19.586Z,50.7372
2023-05-19T01:42:21.230Z,50.7589
2023-05-19T01:43:22.830Z,50.8190
2023-05-19T01:44:25.451Z,50.7374
2023-05-19T01:45:26.148Z,50.6780
2023-05-19T01:46:27.936Z,50.5870
2023-05-19T01:47:29.510Z,50.5288
2023-05-19T01:48:31.092Z,50.6415
2023-05-19T01:49:32.739Z,50.7261
2023-05-19T01:50:34.603Z,50.7514
2023-05-19T01:51:36.097Z,50.7997
2023-05-19T01:52:38.400Z,50.8106
2023-05-19T01:53:39.344Z,50.8132
2023-05-19T01:54:40.947Z,50.7621
2023-05-19T01:55:42.662Z,50.7490
2023-05-19T01:56:44.427Z,50.6828
2023-05-19T01:57:45.994Z,50.6861
2023-05-19T01:58:47.603Z,50.7030
2023-05-19T01:59:49.264Z,50.8006
2023-05-19T02:00:50.894Z,50.8389
2023-05-19T02:01:52.613Z,50.8389
2023-05-19T02:02:54.249Z,50.9050
2023-05-19T02:03:55.792Z,50.7857
2023-05-19T02:04:57.524Z,50.7331
2023-05-19T02:05:59.229Z,50.7476
2023-05-19T02:07:00.770Z,50.8120
2023-05-19T02:08:02.515Z,50.8848
2023-05-19T02:09:04.073Z,50.9276
2023-05-19T02:10:05.724Z,50.9372
2023-05-19T02:11:07.311Z,50.9519
2023-05-19T02:12:09.063Z,50.8081
2023-05-19T02:13:10.984Z,50.7181
2023-05-19T02:14:12.327Z,50.8743
2023-05-19T02:15:13.914Z,51.0122
2023-05-19T02:16:15.639Z,51.0669
2023-05-19T02:17:17.241Z,51.0833
2023-05-19T02:18:18.883Z,50.9421
2023-05-19T02:19:20.667Z,50.8063
2023-05-19T02:20:22.206Z,50.8109
2023-05-19T02:21:23.818Z,50.7413
2023-05-19T02:22:25.464Z,50.8845
2023-05-19T02:23:27.111Z,50.8651
2023-05-19T02:24:28.744Z,50.9491
2023-05-19T02:25:30.390Z,50.9227
2023-05-19T02:26:32.020Z,50.9550
2023-05-19T02:27:33.932Z,50.9425
2023-05-19T02:28:35.360Z,51.0273
2023-05-19T02:29:37.912Z,51.1281
2023-05-19T02:30:38.596Z,51.0621
2023-05-19T02:31:40.308Z,51.0473
2023-05-19T02:32:41.962Z,50.9250
2023-05-19T02:33:43.940Z,50.8186
2023-05-19T02:34:45.215Z,50.8480
2023-05-19T02:35:46.786Z,50.9398
2023-05-19T02:36:48.439Z,50.9611
2023-05-19T02:37:50.224Z,51.0293
2023-05-19T02:38:51.756Z,51.0507
2023-05-19T02:39:53.391Z,50.9911
2023-05-19T02:40:55.141Z,50.8726
2023-05-19T02:41:56.756Z,50.8985
2023-05-19T02:42:58.356Z,50.8993
2023-05-19T02:44:00.476Z,50.9757
2023-05-19T02:45:01.602Z,50.9722
2023-05-19T02:46:03.317Z,50.8994
2023-05-19T02:47:04.882Z,50.8926
2023-05-19T02:48:06.699Z,50.8550
2023-05-19T02:49:08.315Z,50.9304
2023-05-19T02:50:09.924Z,51.0840
2023-05-19T02:51:11.562Z,51.2700
2023-05-19T02:52:13.318Z,51.7292
2023-05-19T02:53:15.064Z,51.8664
2023-05-19T02:54:17.006Z,51.6217
2023-05-19T02:55:18.124Z,51.1687
2023-05-19T02:56:19.819Z,50.2329
2023-05-19T02:57:21.427Z,49.6066
2023-05-19T02:58:23.165Z,49.2871
2023-05-19T02:59:25.715Z,48.7494
2023-05-19T03:00:26.366Z,48.6037
2023-05-19T03:01:28.062Z,48.5722
2023-05-19T03:02:29.764Z,48.5808
2023-05-19T03:03:31.436Z,48.5866
2023-05-19T03:04:32.943Z,48.6166
2023-05-19T03:05:34.659Z,48.5566
2023-05-19T03:06:36.269Z,48.4482
2023-05-19T03:07:38.582Z,48.4586
2023-05-19T03:08:42.176Z,48.5179
2023-05-19T03:09:41.188Z,48.5330
2023-05-19T03:10:42.708Z,48.5387
2023-05-19T03:11:44.393Z,48.4443
2023-05-19T03:12:46.010Z,48.4282
2023-05-19T03:13:47.728Z,48.4856
2023-05-19T03:14:49.390Z,48.4895
2023-05-19T03:15:50.963Z,48.4425
2023-05-19T03:16:52.846Z,48.3469
2023-05-19T03:17:54.278Z,48.2301
2023-05-19T03:18:55.899Z,48.1766
2023-05-19T03:19:57.553Z,48.0936
2023-05-19T03:20:59.179Z,48.0894
2023-05-19T03:22:00.767Z,48.2221
2023-05-19T03:23:02.384Z,48.2418
2023-05-19T03:24:04.108Z,48.2635
2023-05-19T03:25:09.003Z,48.2049
2023-05-19T03:26:07.366Z,48.0553
2023-05-19T03:27:09.029Z,48.0760
2023-05-19T03:28:10.663Z,48.0610
2023-05-19T03:29:12.275Z,48.0199
2023-05-19T03:30:15.017Z,48.0605
2023-05-19T03:31:15.582Z,48.2452
2023-05-19T03:32:17.249Z,48.1765
2023-05-19T03:33:18.927Z,48.0368
2023-05-19T03:34:21.495Z,48.0174
2023-05-19T03:35:22.155Z,47.9799
2023-05-19T03:36:23.745Z,47.9493
2023-05-19T03:37:25.411Z,47.9619
2023-05-19T03:38:27.048Z,47.8941
2023-05-19T03:39:28.660Z,48.0740
2023-05-19T03:40:30.554Z,48.0962
2023-05-19T03:41:32.040Z,48.0530
2023-05-19T03:42:33.693Z,48.0951
2023-05-19T03:43:35.324Z,48.2010
2023-05-19T03:44:36.965Z,48.2161
2023-05-19T03:45:38.681Z,48.1963
2023-05-19T03:46:40.273Z,48.2303
2023-05-19T03:47:41.914Z,48.2576
2023-05-19T03:48:43.578Z,48.3157
2023-05-19T03:49:45.176Z,48.4093
2023-05-19T03:50:46.869Z,48.7376
2023-05-19T03:51:48.443Z,48.7172
2023-05-19T03:52:50.127Z,48.4670
2023-05-19T03:53:51.775Z,48.5024
2023-05-19T03:54:54.482Z,48.5347
2023-05-19T03:55:55.443Z,48.5229
2023-05-19T03:56:56.694Z,48.7705
2023-05-19T03:57:58.373Z,48.6859
2023-05-19T03:59:00.029Z,48.6147
2023-05-19T04:00:01.789Z,48.4970
2023-05-19T04:01:03.373Z,48.4288
2023-05-19T04:02:04.934Z,48.3330
2023-05-19T04:03:06.632Z,48.2769
2023-05-19T04:04:08.269Z,48.3677
2023-05-19T04:05:10.001Z,48.4813
2023-05-19T04:06:11.522Z,48.5883
2023-05-19T04:07:13.181Z,48.4553
2023-05-19T04:08:14.776Z,48.4420
2023-05-19T04:09:16.452Z,48.5356
2023-05-19T04:10:19.239Z,48.4389
2023-05-19T04:11:19.904Z,48.3548
2023-05-19T04:12:21.571Z,48.3064
2023-05-19T04:13:23.237Z,48.3134
2023-05-19T04:14:25.769Z,48.2937
2023-05-19T04:15:27.327Z,48.3482
2023-05-19T04:16:28.224Z,48.2937
2023-05-19T04:17:29.769Z,48.3371
2023-05-19T04:18:31.434Z,48.2184
2023-05-19T04:19:33.027Z,48.1009
2023-05-19T04:20:35.158Z,47.9655
2023-05-19T04:21:36.288Z,47.9149
2023-05-19T04:22:37.972Z,47.9469
2023-05-19T04:23:39.615Z,47.9604
2023-05-19T04:24:41.274Z,48.1195
2023-05-19T04:25:42.940Z,48.2685
2023-05-19T04:26:44.573Z,48.1684
2023-05-19T04:27:46.235Z,48.1586
2023-05-19T04:28:47.879Z,48.1174
2023-05-19T04:29:49.469Z,48.1094
2023-05-19T04:30:51.307Z,48.1971
2023-05-19T04:31:52.779Z,48.3037
2023-05-19T04:32:55.431Z,48.0903
2023-05-19T04:33:55.973Z,48.1277
2023-05-19T04:34:57.754Z,48.1430
2023-05-19T04:35:59.405Z,48.0902
2023-05-19T04:37:01.029Z,48.0806
2023-05-19T04:38:02.664Z,48.0016
2023-05-19T04:39:04.286Z,47.9086
2023-05-19T04:40:06.176Z,47.8951
2023-05-19T04:41:07.558Z,47.8550
2023-05-19T04:42:09.234Z,47.7841
2023-05-19T04:43:10.866Z,47.6482
2023-05-19T04:44:12.479Z,47.6010
2023-05-19T04:45:14.336Z,47.6084
2023-05-19T04:46:16.902Z,47.7959
2023-05-19T04:47:17.323Z,47.9899
2023-05-19T04:48:19.106Z,47.8730
2023-05-19T04:49:20.649Z,47.6895
2023-05-19T04:50:22.423Z,47.7452
2023-05-19T04:51:24.031Z,47.7064
2023-05-19T04:52:25.719Z,47.6694
2023-05-19T04:53:27.277Z,47.2680
2023-05-19T04:54:28.966Z,46.7001
2023-05-19T04:55:30.551Z,45.7339
2023-05-19T04:56:32.328Z,45.0206
2023-05-19T04:57:33.821Z,44.1822
2023-05-19T04:58:35.475Z,43.1918
2023-05-19T04:59:37.690Z,42.0975
2023-05-19T05:00:38.749Z,41.5653
2023-05-19T05:01:40.519Z,40.3682
2023-05-19T05:02:43.251Z,39.8048
2023-05-19T05:03:43.731Z,39.5302
2023-05-19T05:04:45.291Z,39.0330
2023-05-19T05:05:46.969Z,38.7728
2023-05-19T05:06:48.673Z,38.0445
2023-05-19T05:07:51.187Z,37.7238
2023-05-19T05:08:51.857Z,37.8524
2023-05-19T05:09:53.441Z,37.6971
2023-05-19T05:10:55.125Z,37.3543
2023-05-19T05:11:56.904Z,36.7685
2023-05-19T05:12:58.427Z,36.5342
2023-05-19T05:14:00.178Z,36.4393
2023-05-19T05:15:01.788Z,37.1017
2023-05-19T05:16:03.442Z,36.6163
2023-05-19T05:17:05.211Z,36.4643
2023-05-19T05:18:06.704Z,36.0768
2023-05-19T05:19:08.341Z,36.1056
2023-05-19T05:20:09.954Z,36.4224
2023-05-19T05:21:11.604Z,36.0350
2023-05-19T05:22:13.278Z,35.8370
2023-05-19T05:23:14.925Z,35.4781
2023-05-19T05:24:16.476Z,35.6465
2023-05-19T05:25:18.272Z,35.9403
2023-05-19T05:26:19.838Z,35.7813
2023-05-19T05:27:21.564Z,35.6781
2023-05-19T05:28:23.084Z,35.4053
2023-05-19T05:29:24.790Z,35.3958
2023-05-19T05:30:26.335Z,35.6289
2023-05-19T05:31:28.016Z,35.8695
2023-05-19T05:32:30.809Z,35.6162
2023-05-19T05:33:31.190Z,35.5823
2023-05-19T05:34:33.043Z,35.1669
2023-05-19T05:35:34.676Z,35.3043
2023-05-19T05:36:36.328Z,35.6979
2023-05-19T05:37:37.912Z,35.5950
2023-05-19T05:38:39.611Z,35.2573
2023-05-19T05:39:42.198Z,34.8925
2023-05-19T05:40:42.809Z,35.1425
2023-05-19T05:41:44.491Z,35.5923
2023-05-19T05:42:46.178Z,35.7066
2023-05-19T05:43:48.754Z,35.7090
2023-05-19T05:44:50.373Z,35.4268
2023-05-19T05:45:51.097Z,35.3539
2023-05-19T05:46:52.712Z,35.7751
2023-05-19T05:47:55.261Z,35.7130
2023-05-19T05:48:56.958Z,35.6108
2023-05-19T05:49:58.491Z,35.5997
2023-05-19T05:50:59.361Z,34.9946
2023-05-19T05:52:06.428Z,35.2877
2023-05-19T05:53:02.528Z,35.7398
2023-05-19T05:54:04.084Z,35.5567
2023-05-19T05:55:05.807Z,35.7648
2023-05-19T05:56:07.436Z,35.0902
2023-05-19T05:57:09.113Z,35.6925
2023-05-19T05:58:10.724Z,35.8145
2023-05-19T05:59:12.338Z,36.0812
2023-05-19T06:00:13.993Z,35.6807
2023-05-19T06:01:15.689Z,35.6792
2023-05-19T06:02:17.331Z,35.6242
2023-05-19T06:03:19.061Z,35.5250
2023-05-19T06:04:20.573Z,35.8755
2023-05-19T06:05:23.128Z,35.5739
2023-05-19T06:06:23.881Z,35.5731
2023-05-19T06:07:25.573Z,35.2493
2023-05-19T06:08:27.150Z,35.5495
2023-05-19T06:09:28.754Z,35.7576
2023-05-19T06:10:30.552Z,35.6641
2023-05-19T06:11:32.058Z,35.4598
2023-05-19T06:12:33.663Z,35.0503
2023-05-19T06:13:35.572Z,35.7194
2023-05-19T06:14:36.956Z,35.6380
2023-05-19T06:15:38.679Z,35.8456
2023-05-19T06:16:40.331Z,35.8232
2023-05-19T06:17:41.960Z,35.2014
2023-05-19T06:18:43.637Z,35.4450
2023-05-19T06:19:45.302Z,35.8143
2023-05-19T06:20:46.897Z,35.7181
2023-05-19T06:21:48.504Z,35.4753
2023-05-19T06:22:50.083Z,35.1552
2023-05-19T06:23:51.848Z,35.5968
2023-05-19T06:24:53.389Z,35.5586
2023-05-19T06:25:55.071Z,35.8152
2023-05-19T06:26:56.808Z,35.8118
2023-05-19T06:27:58.433Z,35.7826
2023-05-19T06:29:00.126Z,35.0315
2023-05-19T06:30:01.726Z,35.7606
2023-05-19T06:31:03.312Z,35.7769
2023-05-19T06:32:04.912Z,35.4942
2023-05-19T06:33:06.601Z,35.5063
2023-05-19T06:34:08.263Z,35.1268
2023-05-19T06:35:09.844Z,35.6761
2023-05-19T06:36:11.448Z,35.6855
2023-05-19T06:37:13.245Z,35.7519
2023-05-19T06:38:14.799Z,35.6087
2023-05-19T06:39:17.121Z,35.0472
2023-05-19T06:40:18.072Z,35.7812
2023-05-19T06:41:19.698Z,35.9312
2023-05-19T06:42:21.335Z,36.2031
2023-05-19T06:43:22.991Z,35.7793
2023-05-19T06:44:24.708Z,35.4340
2023-05-19T06:45:26.271Z,35.6470
2023-05-19T06:46:27.971Z,35.8103
2023-05-19T06:47:29.656Z,36.2645
2023-05-19T06:48:31.224Z,35.8854
2023-05-19T06:49:33.136Z,35.6143
2023-05-19T06:50:34.849Z,35.4595
2023-05-19T06:51:36.184Z,35.8117
2023-05-19T06:52:37.790Z,36.0225
2023-05-19T06:53:39.501Z,35.9204
2023-05-19T06:54:41.247Z,35.8335
2023-05-19T06:55:57.499Z,35.4410
2023-05-19T06:56:44.500Z,35.6763
2023-05-19T06:57:46.098Z,36.0761
2023-05-19T06:58:47.753Z,35.9058
2023-05-19T06:59:49.448Z,35.7881
2023-05-19T07:00:51.013Z,35.1984
2023-05-19T07:01:52.770Z,35.7952
2023-05-19T07:02:55.128Z,35.7854
2023-05-19T07:03:56.068Z,36.2055
2023-05-19T07:04:58.087Z,35.9423
2023-05-19T07:05:59.609Z,35.6976
2023-05-19T07:07:00.873Z,35.3973
2023-05-19T07:08:02.586Z,35.6883
2023-05-19T07:09:04.225Z,36.0734
2023-05-19T07:10:05.831Z,35.6927
2023-05-19T07:11:07.469Z,35.5300
2023-05-19T07:12:09.105Z,35.3458
2023-05-19T07:13:10.748Z,35.9782
2023-05-19T07:14:12.387Z,35.6263
2023-05-19T07:15:14.075Z,36.1874
2023-05-19T07:16:15.728Z,36.1136
2023-05-19T07:17:17.314Z,35.3021
2023-05-19T07:18:19.095Z,35.5962
2023-05-19T07:19:20.762Z,35.7700
2023-05-19T07:20:23.147Z,35.8898
2023-05-19T07:21:23.880Z,35.9219
2023-05-19T07:22:25.586Z,35.1176
2023-05-19T07:23:27.125Z,35.4890
2023-05-19T07:24:28.810Z,35.4417
2023-05-19T07:25:30.486Z,36.1626
2023-05-19T07:26:32.050Z,35.8509
2023-05-19T07:27:33.663Z,35.4843
2023-05-19T07:28:35.298Z,35.4203
2023-05-19T07:29:36.952Z,35.7524
2023-05-19T07:30:38.590Z,35.9452
2023-05-19T07:31:41.091Z,36.1552
2023-05-19T07:32:41.896Z,35.7905
2023-05-19T07:33:43.496Z,35.2806
2023-05-19T07:34:45.206Z,35.9144
2023-05-19T07:35:46.878Z,35.9896
2023-05-19T07:36:48.568Z,36.1354
2023-05-19T07:37:50.055Z,35.5975
2023-05-19T07:38:51.778Z,35.0417
2023-05-19T07:39:53.384Z,35.5903
2023-05-19T07:40:55.151Z,35.8205
2023-05-19T07:41:56.711Z,36.1379
2023-05-19T07:42:58.306Z,35.7708
2023-05-19T07:43:59.944Z,35.2376
2023-05-19T07:45:01.748Z,35.9414
2023-05-19T07:46:03.589Z,36.0744
2023-05-19T07:47:05.064Z,36.3517
2023-05-19T07:48:06.826Z,36.0098
2023-05-19T07:49:09.323Z,35.5088
2023-05-19T07:50:09.931Z,36.2012
2023-05-19T07:51:11.806Z,35.9576
2023-05-19T07:52:13.389Z,36.2873
2023-05-19T07:53:15.904Z,36.6385
2023-05-19T07:54:16.465Z,36.1630
2023-05-19T07:55:19.100Z,35.6948
2023-05-19T07:56:19.871Z,36.0271
2023-05-19T07:57:21.588Z,36.0896
2023-05-19T07:58:24.269Z,36.5906
2023-05-19T07:59:25.652Z,36.0800
2023-05-19T08:00:26.430Z,35.5019
2023-05-19T08:01:29.049Z,35.8609
2023-05-19T08:02:29.771Z,35.9113
2023-05-19T08:03:31.406Z,35.9691
2023-05-19T08:04:33.069Z,35.6167
2023-05-19T08:05:34.631Z,35.1303
2023-05-19T08:06:36.348Z,35.4499
2023-05-19T08:07:38.032Z,35.4111
2023-05-19T08:08:39.573Z,35.8572
2023-05-19T08:09:41.243Z,36.1323
2023-05-19T08:10:42.884Z,35.4356
2023-05-19T08:11:44.467Z,35.7518
2023-05-19T08:12:46.750Z,35.8170
2023-05-19T08:13:47.705Z,35.9678
2023-05-19T08:14:49.476Z,36.3799
2023-05-19T08:15:51.123Z,35.6180
2023-05-19T08:16:52.716Z,35.3840
2023-05-19T08:17:54.402Z,35.9929
2023-05-19T08:18:56.081Z,35.7096
2023-05-19T08:19:57.798Z,36.2193
2023-05-19T08:21:00.349Z,36.5793
2023-05-19T08:22:00.821Z,35.8154
2023-05-19T08:23:02.564Z,35.7565
2023-05-19T08:24:04.249Z,36.1091
2023-05-19T08:25:05.904Z,36.4031
2023-05-19T08:26:07.488Z,36.8277
2023-05-19T08:27:09.148Z,36.1996
2023-05-19T08:28:10.752Z,35.7853
2023-05-19T08:29:12.486Z,36.3832
2023-05-19T08:30:14.214Z,36.1744
2023-05-19T08:31:15.813Z,36.7602
2023-05-19T08:32:17.439Z,36.1455
2023-05-19T08:33:19.039Z,35.3459
2023-05-19T08:34:20.757Z,36.0656
2023-05-19T08:35:23.397Z,35.6495
2023-05-19T08:36:24.187Z,35.8979
2023-05-19T08:37:25.597Z,36.2946
2023-05-19T08:38:27.276Z,36.2456
2023-05-19T08:39:28.876Z,35.6970
2023-05-19T08:40:30.711Z,35.8798
2023-05-19T08:41:32.300Z,36.0063
2023-05-19T08:42:34.839Z,35.8897
2023-05-19T08:43:35.356Z,36.3478
2023-05-19T08:44:37.109Z,35.9201
2023-05-19T08:45:38.832Z,35.2528
2023-05-19T08:46:40.454Z,36.1097
2023-05-19T08:47:42.076Z,36.2603
2023-05-19T08:48:43.709Z,36.6386
2023-05-19T08:49:45.305Z,36.2913
2023-05-19T08:50:46.945Z,35.7894
2023-05-19T08:51:48.700Z,36.8442
2023-05-19T08:52:52.958Z,37.1546
2023-05-19T08:53:51.913Z,38.4213
2023-05-19T08:54:53.470Z,38.7320
2023-05-19T08:55:56.162Z,39.2093
2023-05-19T08:56:56.782Z,38.5803
2023-05-19T08:57:58.388Z,39.7453
2023-05-19T08:58:59.990Z,40.3604
2023-05-19T09:00:01.669Z,41.5916
2023-05-19T09:01:03.322Z,41.2264
2023-05-19T09:02:05.702Z,40.7245
2023-05-19T09:04:08.373Z,41.4804
2023-05-19T09:05:09.948Z,42.5629
2023-05-19T09:06:11.513Z,42.6092
2023-05-19T09:07:13.190Z,42.3239
2023-05-19T09:08:14.960Z,41.1612
2023-05-19T09:09:16.481Z,42.0107
2023-05-19T09:10:18.177Z,42.5061
2023-05-19T09:11:19.761Z,43.3770
2023-05-19T09:12:21.538Z,43.0947
2023-05-19T09:13:23.038Z,42.6187
2023-05-19T09:14:24.667Z,41.8654
2023-05-19T09:15:26.321Z,42.1820
2023-05-19T09:16:29.942Z,44.0383
2023-05-19T09:17:29.631Z,43.8803
2023-05-19T09:18:31.315Z,44.1849
2023-05-19T09:19:33.036Z,42.1978
2023-05-19T09:20:34.638Z,42.4666
2023-05-19T09:21:36.172Z,43.0104
2023-05-19T09:22:38.225Z,45.1290
2023-05-19T09:23:39.469Z,43.8876
2023-05-19T09:24:41.202Z,45.0057
2023-05-19T09:25:42.716Z,42.5018
2023-05-19T09:26:44.425Z,42.7713
2023-05-19T09:27:46.160Z,43.6590
2023-05-19T09:28:47.735Z,44.4096
2023-05-19T09:29:49.303Z,44.3290
2023-05-19T09:30:51.012Z,43.4354
2023-05-19T09:31:52.738Z,42.3771
2023-05-19T09:32:54.341Z,42.6394
2023-05-19T09:33:56.074Z,44.5242
2023-05-19T09:34:57.549Z,44.0959
2023-05-19T09:35:59.175Z,44.6862
2023-05-19T09:37:00.903Z,42.5268
2023-05-19T09:38:02.488Z,42.5611
2023-05-19T09:39:04.229Z,43.1709
2023-05-19T09:40:05.798Z,44.3477
2023-05-19T09:41:07.484Z,43.5506
2023-05-19T09:42:09.082Z,43.3314
2023-05-19T09:43:10.730Z,42.3935
2023-05-19T09:44:12.400Z,42.6143
2023-05-19T09:45:14.043Z,44.0412
2023-05-19T09:46:15.595Z,44.0900
2023-05-19T09:47:17.313Z,44.3478
2023-05-19T09:48:18.922Z,42.3758
2023-05-19T09:49:20.618Z,42.6031
2023-05-19T09:50:22.208Z,43.3573
2023-05-19T09:51:23.855Z,44.1247
2023-05-19T09:52:25.503Z,43.8657
2023-05-19T09:53:27.226Z,42.3903
2023-05-19T09:54:28.849Z,41.1640
2023-05-19T09:55:31.099Z,40.7002
2023-05-19T09:56:32.120Z,40.3645
2023-05-19T09:57:33.696Z,39.9393
2023-05-19T09:58:35.563Z,39.0633
2023-05-19T09:59:37.041Z,37.9598
2023-05-19T10:00:38.703Z,38.0923
2023-05-19T10:01:40.389Z,37.9094
2023-05-19T10:02:41.960Z,38.0051
2023-05-19T10:03:43.535Z,37.8094
2023-05-19T10:04:45.854Z,37.0415
2023-05-19T10:05:46.883Z,36.4096
2023-05-19T10:06:48.461Z,37.0351
2023-05-19T10:07:50.114Z,36.8063
2023-05-19T10:08:51.741Z,37.1327
2023-05-19T10:09:53.752Z,36.2599
2023-05-19T10:10:55.072Z,35.9157
2023-05-19T10:11:57.181Z,36.3744
2023-05-19T10:12:58.381Z,36.0300
2023-05-19T10:14:00.012Z,36.2424
2023-05-19T10:15:01.598Z,36.3474
2023-05-19T10:16:03.586Z,35.3625
2023-05-19T10:17:05.069Z,35.7635
2023-05-19T10:18:06.557Z,35.8870
2023-05-19T10:19:08.206Z,35.8985
2023-05-19T10:20:09.841Z,36.0599
2023-05-19T10:21:11.495Z,35.4041
2023-05-19T10:22:13.049Z,35.5851
2023-05-19T10:23:15.159Z,35.7275
2023-05-19T10:24:16.301Z,35.3537
2023-05-19T10:25:17.924Z,35.4385
2023-05-19T10:26:19.523Z,35.3885
2023-05-19T10:27:21.247Z,35.2178
2023-05-19T10:28:22.916Z,35.4439
2023-05-19T10:29:24.666Z,35.4756
2023-05-19T10:30:26.137Z,35.2451
2023-05-19T10:31:27.787Z,35.3394
2023-05-19T10:32:29.698Z,35.1062
2023-05-19T10:33:31.631Z,35.1572
2023-05-19T10:34:32.699Z,35.3965
2023-05-19T10:35:34.521Z,35.2173
2023-05-19T10:36:36.052Z,35.3503
2023-05-19T10:37:38.186Z,35.5625
2023-05-19T10:38:39.296Z,35.0060
2023-05-19T10:39:41.109Z,34.8808
2023-05-19T10:40:42.765Z,34.8947
2023-05-19T10:41:45.137Z,34.8253
2023-05-19T10:42:46.019Z,34.6351
2023-05-19T10:43:47.678Z,34.1621
2023-05-19T10:44:49.340Z,34.6019
2023-05-19T10:45:51.003Z,34.6468
2023-05-19T10:46:54.162Z,34.4011
2023-05-19T10:47:54.257Z,34.3985
2023-05-19T10:48:56.966Z,34.6073
2023-05-19T10:49:57.467Z,35.3953
2023-05-19T10:50:59.160Z,36.3575
2023-05-19T10:52:00.758Z,36.9597
2023-05-19T10:53:03.376Z,37.9446
2023-05-19T10:54:04.154Z,37.5114
2023-05-19T10:55:05.738Z,37.7137
2023-05-19T10:56:07.449Z,38.5307
2023-05-19T10:57:09.125Z,39.2517
2023-05-19T10:58:10.838Z,39.6671
2023-05-19T10:59:12.874Z,39.6655
2023-05-19T11:00:15.177Z,38.8363
2023-05-19T11:01:15.761Z,39.5367
2023-05-19T11:02:18.399Z,40.4060
2023-05-19T11:03:20.229Z,41.0510
2023-05-19T11:04:20.781Z,41.1048
2023-05-19T11:05:22.232Z,39.9159
2023-05-19T11:06:23.955Z,40.0873
2023-05-19T11:07:25.556Z,40.6878
2023-05-19T11:08:27.298Z,41.5124
2023-05-19T11:09:39.879Z,41.2087
2023-05-19T11:10:31.348Z,40.3228
2023-05-19T11:11:33.230Z,40.9902
2023-05-19T11:12:33.710Z,40.8257
2023-05-19T11:13:36.667Z,42.2444
2023-05-19T11:14:37.057Z,45.0621
2023-05-19T11:15:38.575Z,43.7282
2023-05-19T11:16:41.404Z,41.1747
2023-05-19T11:17:41.983Z,41.3588
2023-05-19T11:18:43.685Z,41.5395
2023-05-19T11:19:45.249Z,42.3161
2023-05-19T11:20:47.071Z,44.3601
2023-05-19T11:21:48.570Z,43.0347
2023-05-19T11:22:50.169Z,42.5331
2023-05-19T11:23:51.938Z,42.5015
2023-05-19T11:24:53.890Z,43.1119
2023-05-19T11:25:55.895Z,44.3537
2023-05-19T11:26:56.739Z,44.6964
2023-05-19T11:27:58.497Z,42.5234
2023-05-19T11:29:00.023Z,43.0639
2023-05-19T11:30:01.836Z,43.1345
2023-05-19T11:31:03.404Z,44.5781
2023-05-19T11:32:05.078Z,45.3587
2023-05-19T11:33:06.686Z,43.8630
2023-05-19T11:34:08.247Z,42.8813
2023-05-19T11:35:09.932Z,42.8111
2023-05-19T11:36:11.579Z,43.4340
2023-05-19T11:37:13.353Z,44.9283
2023-05-19T11:38:15.795Z,45.0477
2023-05-19T11:39:17.465Z,41.9655
2023-05-19T11:40:18.126Z,42.3035
2023-05-19T11:41:20.848Z,42.0047
2023-05-19T11:42:21.474Z,43.0794
2023-05-19T11:43:23.145Z,44.7808
2023-05-19T11:44:24.742Z,42.7348
2023-05-19T11:45:26.392Z,41.6594
2023-05-19T11:46:29.066Z,42.0590
2023-05-19T11:47:32.042Z,41.9562
2023-05-19T11:48:31.319Z,43.4007
2023-05-19T11:49:32.787Z,44.8368
2023-05-19T11:50:34.451Z,41.9887
2023-05-19T11:51:36.126Z,41.9214
2023-05-19T11:52:38.277Z,41.9475
2023-05-19T11:53:39.388Z,42.5382
2023-05-19T11:54:41.029Z,44.5471
2023-05-19T11:55:42.654Z,44.0025
2023-05-19T11:56:44.367Z,41.6537
2023-05-19T11:57:56.038Z,42.1736
2023-05-19T11:58:47.602Z,42.1742
2023-05-19T11:59:49.314Z,43.0506
2023-05-19T12:00:50.863Z,45.0527
2023-05-19T12:01:52.565Z,42.4875
2023-05-19T12:02:54.390Z,41.5868
2023-05-19T12:03:55.986Z,42.0955
2023-05-19T12:04:57.541Z,42.2978
2023-05-19T12:05:59.193Z,43.7543
2023-05-19T12:07:00.777Z,44.5559
2023-05-19T12:08:02.463Z,41.9320
2023-05-19T12:09:04.000Z,41.8120
2023-05-19T12:10:05.718Z,41.9215
2023-05-19T12:11:07.302Z,42.4948
2023-05-19T12:12:09.128Z,44.3616
2023-05-19T12:13:10.930Z,44.4757
2023-05-19T12:14:12.271Z,41.8331
2023-05-19T12:15:13.858Z,42.1562
2023-05-19T12:16:15.586Z,42.3747
2023-05-19T12:17:17.195Z,43.1384
2023-05-19T12:18:18.864Z,44.9435
2023-05-19T12:19:20.480Z,43.3102
2023-05-19T12:20:22.086Z,41.7371
2023-05-19T12:21:23.767Z,42.4940
2023-05-19T12:22:25.515Z,42.3678
2023-05-19T12:23:27.090Z,43.6428
2023-05-19T12:24:28.679Z,45.0778
2023-05-19T12:25:30.348Z,42.8119
2023-05-19T12:26:32.054Z,41.4611